createdAt,value
2023-04-19T00:01:16.571Z,2.70
2023-04-19T00:03:43.434Z,3.35
2023-04-19T00:06:15.000Z,3.47
2023-04-19T00:08:44.523Z,3.05
2023-04-19T00:11:11.277Z,3.00
2023-04-19T00:13:38.395Z,3.45
2023-04-19T00:16:06.025Z,3.38
2023-04-19T00:18:32.683Z,3.17
2023-04-19T00:20:59.961Z,3.28
2023-04-19T00:23:26.694Z,3.13
2023-04-19T00:25:53.352Z,3.20
2023-04-19T00:28:20.000Z,2.83
2023-04-19T00:30:46.694Z,3.17
2023-04-19T00:33:13.455Z,3.33
2023-04-19T00:35:44.655Z,3.38
2023-04-19T00:38:11.409Z,3.30
2023-04-19T00:40:43.186Z,3.30
2023-04-19T00:43:09.993Z,3.22
2023-04-19T00:45:36.901Z,3.42
2023-04-19T00:48:06.628Z,3.22
2023-04-19T00:50:36.078Z,3.22
2023-04-19T00:53:03.108Z,3.33
2023-04-19T00:55:32.803Z,3.30
2023-04-19T00:58:00.150Z,3.42
2023-04-19T01:00:26.898Z,3.03
2023-04-19T01:02:55.455Z,3.17
2023-04-19T01:05:22.228Z,3.22
2023-04-19T01:07:48.903Z,2.90
2023-04-19T01:10:16.439Z,2.95
2023-04-19T01:12:43.100Z,2.83
2023-04-19T01:15:10.227Z,3.17
2023-04-19T01:17:37.648Z,3.47
2023-04-19T01:20:08.756Z,3.30
2023-04-19T01:22:37.599Z,3.58
2023-04-19T01:25:07.500Z,3.30
2023-04-19T01:30:00.912Z,3.30
2023-04-19T01:32:27.695Z,3.58
2023-04-19T01:34:54.775Z,3.40
2023-04-19T01:37:21.517Z,3.70
2023-04-19T01:39:48.293Z,3.67
2023-04-19T01:42:15.107Z,3.70
2023-04-19T01:44:41.928Z,3.67
2023-04-19T01:47:08.715Z,3.75
2023-04-19T01:49:35.717Z,3.90
2023-04-19T01:52:02.488Z,3.63
2023-04-19T01:54:29.261Z,3.30
2023-04-19T01:56:57.074Z,3.92
2023-04-19T01:59:28.372Z,3.17
2023-04-19T02:02:00.058Z,3.45
2023-04-19T02:04:27.223Z,3.72
2023-04-19T02:06:54.308Z,3.38
2023-04-19T02:09:21.434Z,3.22
2023-04-19T02:11:48.512Z,3.60
2023-04-19T02:14:15.948Z,3.35
2023-04-19T02:16:43.708Z,3.55
2023-04-19T02:19:10.827Z,3.58
2023-04-19T02:21:37.964Z,2.90
2023-04-19T02:24:05.101Z,3.75
2023-04-19T02:26:32.176Z,3.55
2023-04-19T02:28:59.260Z,3.70
2023-04-19T02:31:26.492Z,3.60
2023-04-19T02:33:55.951Z,3.75
2023-04-19T02:36:23.066Z,3.33
2023-04-19T02:38:52.761Z,3.80
2023-04-19T02:41:22.147Z,3.40
2023-04-19T02:43:49.213Z,3.88
2023-04-19T02:46:16.335Z,4.00
2023-04-19T02:48:43.459Z,3.83
2023-04-19T02:51:15.836Z,3.70
2023-04-19T02:53:42.881Z,4.05
2023-04-19T02:56:10.089Z,3.63
2023-04-19T02:58:37.135Z,4.00
2023-04-19T03:01:04.347Z,4.70
2023-04-19T03:03:31.732Z,4.43
2023-04-19T03:05:58.948Z,5.47
2023-04-19T03:08:26.085Z,5.20
2023-04-19T03:10:53.140Z,5.82
2023-04-19T03:13:20.295Z,5.43
2023-04-19T03:15:48.596Z,5.07
2023-04-19T03:18:17.269Z,6.03
2023-04-19T03:20:44.347Z,4.88
2023-04-19T03:23:11.535Z,5.32
2023-04-19T03:25:38.632Z,5.35
2023-04-19T03:28:05.841Z,5.00
2023-04-19T03:30:35.541Z,5.28
2023-04-19T03:33:02.696Z,5.25
2023-04-19T03:35:32.150Z,4.60
2023-04-19T03:37:59.388Z,5.65
2023-04-19T03:40:26.464Z,5.85
2023-04-19T03:42:53.578Z,5.93
2023-04-19T03:45:20.690Z,4.72
2023-04-19T03:47:47.882Z,5.10
2023-04-19T03:50:15.022Z,5.47
2023-04-19T03:52:42.108Z,5.85
2023-04-19T03:55:09.654Z,4.95
2023-04-19T03:57:36.790Z,5.05
2023-04-19T04:00:07.128Z,5.03
2023-04-19T04:02:34.364Z,5.20
2023-04-19T04:05:01.776Z,5.47
2023-04-19T04:07:29.036Z,5.07
2023-04-19T04:10:00.677Z,5.38
2023-04-19T04:12:27.770Z,5.13
2023-04-19T04:14:57.258Z,5.15
2023-04-19T04:17:24.592Z,4.65
2023-04-19T04:19:51.740Z,5.18
2023-04-19T04:22:18.891Z,4.85
2023-04-19T04:24:47.220Z,5.63
2023-04-19T04:27:20.962Z,4.67
2023-04-19T04:29:49.405Z,4.57
2023-04-19T04:32:18.145Z,5.97
2023-04-19T04:34:45.587Z,5.70
2023-04-19T04:37:13.601Z,5.10
2023-04-19T04:39:40.795Z,5.10
2023-04-19T04:42:10.459Z,4.95
2023-04-19T04:44:38.851Z,5.18
2023-04-19T04:47:08.207Z,4.97
2023-04-19T04:49:36.291Z,4.70
2023-04-19T04:52:03.414Z,4.60
2023-04-19T04:54:32.797Z,5.10
2023-04-19T04:56:59.955Z,4.82
2023-04-19T04:59:27.314Z,5.32
2023-04-19T05:01:54.432Z,4.95
2023-04-19T05:04:21.585Z,5.28
2023-04-19T05:06:48.639Z,4.68
2023-04-19T05:09:15.690Z,4.80
2023-04-19T05:11:43.089Z,4.68
2023-04-19T05:14:10.246Z,4.30
2023-04-19T05:16:37.417Z,3.97
2023-04-19T05:19:04.510Z,4.88
2023-04-19T05:21:31.642Z,4.60
2023-04-19T05:23:58.710Z,5.10
2023-04-19T05:26:27.996Z,4.85
2023-04-19T05:28:56.211Z,5.07
2023-04-19T05:31:23.396Z,4.63
2023-04-19T05:33:50.575Z,3.92
2023-04-19T05:36:17.655Z,4.15
2023-04-19T05:38:44.741Z,4.53
2023-04-19T05:41:12.124Z,4.65
2023-04-19T05:43:41.704Z,5.05
2023-04-19T05:46:11.313Z,4.70
2023-04-19T05:48:38.477Z,4.30
2023-04-19T05:51:05.667Z,5.05
2023-04-19T05:53:35.058Z,4.55
2023-04-19T05:56:04.419Z,4.68
2023-04-19T05:58:31.764Z,5.45
2023-04-19T06:00:58.887Z,5.00
2023-04-19T06:03:27.760Z,4.55
2023-04-19T06:05:58.085Z,4.82
2023-04-19T06:08:25.510Z,5.07
2023-04-19T06:11:00.191Z,4.80
2023-04-19T06:13:32.156Z,4.40
2023-04-19T06:15:59.314Z,4.72
2023-04-19T06:18:26.536Z,5.72
2023-04-19T06:20:53.914Z,4.30
2023-04-19T06:23:21.058Z,4.85
2023-04-19T06:25:50.940Z,5.25
2023-04-19T06:30:47.902Z,4.80
2023-04-19T06:33:14.978Z,5.97
2023-04-19T06:35:42.137Z,5.55
2023-04-19T06:38:09.326Z,6.10
2023-04-19T06:40:36.416Z,5.72
2023-04-19T06:43:06.211Z,6.00
2023-04-19T06:48:02.824Z,5.90
2023-04-19T06:50:29.949Z,6.13
2023-04-19T06:52:57.146Z,5.70
2023-04-19T06:55:24.409Z,5.90
2023-04-19T06:57:51.487Z,5.30
2023-04-19T07:00:18.814Z,5.28
2023-04-19T07:02:45.913Z,5.30
2023-04-19T07:05:13.442Z,5.70
2023-04-19T07:07:41.274Z,6.00
2023-04-19T07:10:12.772Z,5.20
2023-04-19T07:12:40.019Z,5.28
2023-04-19T07:15:07.406Z,5.18
2023-04-19T07:17:38.046Z,5.68
2023-04-19T07:20:06.563Z,5.93
2023-04-19T07:22:34.008Z,5.80
2023-04-19T07:25:01.167Z,5.63
2023-04-19T07:27:30.527Z,5.53
2023-04-19T07:29:57.633Z,4.90
2023-04-19T07:32:24.813Z,4.85
2023-04-19T07:34:51.820Z,5.13
2023-04-19T07:37:21.275Z,5.22
2023-04-19T07:39:50.464Z,5.07
2023-04-19T07:42:17.241Z,4.97
2023-04-19T07:44:44.207Z,4.38
2023-04-19T07:47:10.880Z,4.43
2023-04-19T07:49:38.362Z,4.70
2023-04-19T07:52:07.760Z,5.53
2023-04-19T07:54:39.186Z,5.45
2023-04-19T07:57:06.106Z,5.68
2023-04-19T07:59:35.041Z,4.57
2023-04-19T08:02:01.968Z,4.97
2023-04-19T08:04:31.724Z,4.22
2023-04-19T08:09:26.305Z,5.03
2023-04-19T08:11:53.593Z,4.45
2023-04-19T08:14:34.571Z,5.00
2023-04-19T08:19:34.399Z,4.47
2023-04-19T08:22:03.732Z,5.20
2023-04-19T08:24:32.705Z,4.72
2023-04-19T08:27:01.998Z,4.87
2023-04-19T08:29:28.740Z,4.95
2023-04-19T08:31:57.721Z,4.47
2023-04-19T08:34:26.884Z,5.07
2023-04-19T08:37:03.340Z,5.60
2023-04-19T08:39:34.904Z,5.03
2023-04-19T08:42:12.527Z,4.50
2023-04-19T08:45:09.317Z,4.70
2023-04-19T08:47:56.062Z,5.03
2023-04-19T08:50:33.553Z,4.50
2023-04-19T08:53:16.476Z,5.22
2023-04-19T09:01:12.815Z,5.22
2023-04-19T09:03:59.425Z,4.65
2023-04-19T09:11:50.762Z,4.50
2023-04-19T09:14:19.577Z,4.15
2023-04-19T09:16:47.024Z,4.03
2023-04-19T09:19:23.122Z,3.95
2023-04-19T09:21:51.889Z,4.05
2023-04-19T09:24:18.857Z,4.25
2023-04-19T09:26:57.968Z,3.85
2023-04-19T09:29:25.368Z,3.83
2023-04-19T09:31:59.394Z,3.55
2023-04-19T09:34:28.183Z,3.90
2023-04-19T09:37:08.388Z,4.00
2023-04-19T09:39:38.522Z,3.80
2023-04-19T09:47:24.132Z,3.45
2023-04-19T09:50:19.235Z,3.30
2023-04-19T09:52:52.307Z,3.20
2023-04-19T09:55:27.917Z,3.42
2023-04-19T09:57:55.424Z,3.58
2023-04-19T10:00:23.127Z,3.72
2023-04-19T10:02:57.954Z,3.42
2023-04-19T10:05:25.724Z,3.30
2023-04-19T10:07:56.683Z,3.28
2023-04-19T10:15:47.230Z,3.75
2023-04-19T10:18:18.477Z,2.85
2023-04-19T10:20:54.333Z,3.30
2023-04-19T10:23:24.132Z,3.40
2023-04-19T10:28:24.873Z,3.60
2023-04-19T10:30:57.182Z,3.28
2023-04-19T10:33:28.408Z,3.40
2023-04-19T10:35:59.643Z,3.17
2023-04-19T10:38:49.398Z,3.47
2023-04-19T10:41:18.610Z,3.00
2023-04-19T10:46:21.638Z,3.13
2023-04-19T10:48:57.948Z,3.42
2023-04-19T10:51:28.713Z,3.20
2023-04-19T10:54:03.658Z,2.75
2023-04-19T10:56:35.363Z,3.03
2023-04-19T10:59:02.331Z,2.80
2023-04-19T11:01:38.107Z,2.30
2023-04-19T11:04:06.063Z,2.47
2023-04-19T11:06:33.999Z,2.45
2023-04-19T11:09:02.727Z,2.05
2023-04-19T11:11:32.992Z,1.88
2023-04-19T11:14:02.438Z,2.20
2023-04-19T11:19:04.953Z,2.92
2023-04-19T11:21:33.908Z,2.40
2023-04-19T11:24:10.947Z,1.98
2023-04-19T11:26:37.691Z,1.65
2023-04-19T11:29:06.205Z,1.70
2023-04-19T11:31:35.605Z,2.00
2023-04-19T11:34:06.284Z,1.80
2023-04-19T11:36:36.643Z,1.80
2023-04-19T11:39:07.480Z,1.63
2023-04-19T11:41:39.491Z,1.50
2023-04-19T11:44:22.871Z,2.20
2023-04-19T11:47:07.489Z,1.80
2023-04-19T11:49:34.467Z,1.70
2023-04-19T11:52:06.484Z,1.80
2023-04-19T11:54:34.005Z,2.10
2023-04-19T11:57:06.064Z,2.30
2023-04-19T11:59:34.546Z,1.50
2023-04-19T12:02:09.301Z,2.10
2023-04-19T12:04:36.806Z,1.75
2023-04-19T12:07:07.033Z,1.80
2023-04-19T12:09:35.846Z,1.80
2023-04-19T12:12:04.981Z,1.73
2023-04-19T12:14:31.901Z,2.72
2023-04-19T12:17:07.994Z,2.92
2023-04-19T12:19:37.196Z,2.42
2023-04-19T12:22:17.311Z,2.80
2023-04-19T12:24:44.123Z,2.63
2023-04-19T12:27:13.204Z,2.10
2023-04-19T12:29:42.237Z,2.58
2023-04-19T12:32:10.861Z,2.28
2023-04-19T12:34:37.619Z,2.60
2023-04-19T12:37:06.842Z,2.47
2023-04-19T12:39:35.885Z,2.67
2023-04-19T12:42:02.867Z,2.33
2023-04-19T12:44:29.517Z,2.20
2023-04-19T12:46:57.741Z,2.20
2023-04-19T12:49:24.621Z,2.20
2023-04-19T12:51:55.229Z,2.28
2023-04-19T12:54:23.945Z,2.28
2023-04-19T12:56:52.801Z,2.67
2023-04-19T12:59:19.647Z,1.90
2023-04-19T13:01:50.934Z,1.88
2023-04-19T13:04:20.565Z,2.05
2023-04-19T13:06:49.970Z,1.80
2023-04-19T13:09:16.644Z,2.03
2023-04-19T13:11:43.397Z,1.92
2023-04-19T13:14:10.280Z,1.75
2023-04-19T13:16:37.014Z,1.80
2023-04-19T13:19:05.967Z,1.70
2023-04-19T13:21:34.939Z,1.63
2023-04-19T13:24:01.622Z,1.80
2023-04-19T13:26:28.852Z,1.58
2023-04-19T13:28:56.267Z,1.40
2023-04-19T13:31:23.456Z,1.55
2023-04-19T13:33:53.065Z,1.90
2023-04-19T13:36:20.273Z,1.40
2023-04-19T13:38:47.800Z,1.58
2023-04-19T13:41:14.989Z,1.75
2023-04-19T13:43:42.141Z,1.30
2023-04-19T13:46:09.297Z,1.50
2023-04-19T13:48:36.524Z,1.55
2023-04-19T13:51:03.657Z,1.38
2023-04-19T13:53:30.865Z,1.67
2023-04-19T13:55:57.966Z,1.63
2023-04-19T13:58:27.411Z,1.52
2023-04-19T14:00:54.278Z,1.73
2023-04-19T14:03:23.276Z,1.70
2023-04-19T14:05:50.193Z,1.60
2023-04-19T14:08:16.853Z,1.83
2023-04-19T14:10:43.676Z,1.60
2023-04-19T14:13:10.524Z,1.85
2023-04-19T14:15:37.261Z,1.90
2023-04-19T14:18:06.208Z,2.05
2023-04-19T14:20:33.099Z,1.90
2023-04-19T14:23:00.335Z,1.75
2023-04-19T14:25:27.631Z,1.52
2023-04-19T14:27:55.912Z,2.03
2023-04-19T14:30:23.063Z,1.70
2023-04-19T14:32:49.806Z,1.73
2023-04-19T14:35:16.563Z,2.38
2023-04-19T14:37:43.442Z,1.63
2023-04-19T14:40:16.101Z,1.77
2023-04-19T14:42:42.811Z,1.70
2023-04-19T14:45:10.199Z,1.98
2023-04-19T14:47:36.952Z,2.00
2023-04-19T14:50:04.093Z,2.00
2023-04-19T14:52:31.362Z,2.10
2023-04-19T14:54:59.688Z,2.10
2023-04-19T14:57:29.826Z,2.33
2023-04-19T15:00:00.967Z,1.85
2023-04-19T15:02:28.159Z,2.05
2023-04-19T15:04:55.292Z,2.00
2023-04-19T15:07:22.217Z,2.42
2023-04-19T15:09:49.081Z,1.92
2023-04-19T15:12:15.872Z,2.33
2023-04-19T15:14:42.663Z,2.20
2023-04-19T15:17:09.331Z,1.95
2023-04-19T15:19:38.958Z,1.88
2023-04-19T15:22:06.240Z,2.45
2023-04-19T15:24:35.084Z,2.20
2023-04-19T15:27:03.999Z,1.98
2023-04-19T15:29:32.889Z,2.45
2023-04-19T15:32:02.861Z,2.15
2023-04-19T15:34:31.703Z,2.05
2023-04-19T15:36:58.462Z,1.85
2023-04-19T15:39:25.684Z,1.90
2023-04-19T15:41:52.385Z,2.10
2023-04-19T15:44:21.405Z,1.98
2023-04-19T15:46:48.139Z,2.20
2023-04-19T15:49:15.001Z,2.40
2023-04-19T15:51:41.914Z,2.40
2023-04-19T15:54:12.119Z,2.08
2023-04-19T15:56:38.777Z,2.25
2023-04-19T15:59:05.591Z,2.00
2023-04-19T16:01:32.349Z,2.67
2023-04-19T16:03:59.259Z,2.05
2023-04-19T16:06:27.326Z,1.90
2023-04-19T16:08:54.068Z,2.40
2023-04-19T16:11:23.295Z,1.80
2023-04-19T16:13:50.012Z,1.73
2023-04-19T16:16:16.723Z,2.00
2023-04-19T16:18:46.984Z,2.08
2023-04-19T16:21:15.944Z,2.30
2023-04-19T16:23:42.601Z,2.08
2023-04-19T16:26:09.679Z,2.40
2023-04-19T16:28:36.764Z,1.90
2023-04-19T16:31:06.476Z,2.65
2023-04-19T16:36:00.605Z,2.00
2023-04-19T16:38:27.722Z,1.90
2023-04-19T16:40:55.727Z,2.28
2023-04-19T16:43:22.484Z,1.90
2023-04-19T16:45:51.437Z,2.17
2023-04-19T16:48:18.686Z,2.33
2023-04-19T16:50:46.327Z,2.20
2023-04-19T16:53:13.439Z,2.10
2023-04-19T16:55:43.077Z,1.90
2023-04-19T16:58:12.391Z,2.00
2023-04-19T17:00:41.774Z,1.88
2023-04-19T17:03:12.235Z,2.00
2023-04-19T17:05:39.387Z,1.90
2023-04-19T17:08:06.483Z,1.70
2023-04-19T17:10:35.894Z,2.10
2023-04-19T17:13:02.977Z,1.70
2023-04-19T17:15:30.194Z,2.80
2023-04-19T17:17:57.402Z,1.90
2023-04-19T17:20:24.535Z,1.75
2023-04-19T17:22:51.599Z,2.08
2023-04-19T17:25:19.960Z,1.65
2023-04-19T17:27:48.834Z,1.83
2023-04-19T17:30:17.129Z,2.00
2023-04-19T17:32:44.323Z,1.73
2023-04-19T17:35:11.491Z,2.08
2023-04-19T17:37:38.642Z,1.90
2023-04-19T17:40:06.268Z,2.33
2023-04-19T17:42:33.429Z,2.05
2023-04-19T17:45:00.560Z,1.90
2023-04-19T17:47:27.535Z,2.00
2023-04-19T17:50:08.350Z,2.25
2023-04-19T17:52:35.600Z,1.80
2023-04-19T17:55:04.507Z,2.00
2023-04-19T17:57:33.706Z,2.30
2023-04-19T18:00:06.874Z,2.30
2023-04-19T18:02:34.835Z,2.00
2023-04-19T18:05:01.779Z,2.10
2023-04-19T18:07:28.832Z,1.85
2023-04-19T18:09:55.600Z,2.00
2023-04-19T18:12:23.113Z,1.90
2023-04-19T18:14:57.035Z,2.10
2023-04-19T18:17:23.884Z,1.90
2023-04-19T18:19:51.106Z,2.05
2023-04-19T18:22:17.785Z,2.03
2023-04-19T18:24:46.831Z,2.00
2023-04-19T18:27:14.269Z,2.20
2023-04-19T18:29:41.506Z,1.80
2023-04-19T18:32:08.685Z,2.05
2023-04-19T18:34:35.721Z,1.95
2023-04-19T18:37:04.991Z,2.22
2023-04-19T18:39:31.706Z,1.95
2023-04-19T18:42:01.832Z,1.80
2023-04-19T18:44:49.435Z,1.90
2023-04-19T18:47:15.835Z,1.70
2023-04-19T18:49:46.115Z,1.98
2023-04-19T18:52:24.730Z,2.00
2023-04-19T18:54:56.162Z,2.10
2023-04-19T18:57:26.583Z,1.80
2023-04-19T18:59:56.071Z,1.92
2023-04-19T19:02:27.074Z,1.80
2023-04-19T19:04:58.479Z,1.98
2023-04-19T19:10:16.077Z,1.95
2023-04-19T19:12:46.147Z,2.00
2023-04-19T19:15:14.112Z,1.77
2023-04-19T19:17:48.563Z,1.85
2023-04-19T19:20:16.768Z,2.45
2023-04-19T19:22:46.353Z,1.98
2023-04-19T19:25:13.698Z,2.05
2023-04-19T19:27:47.449Z,2.00
2023-04-19T19:30:31.290Z,2.00
2023-04-19T19:33:00.808Z,2.40
2023-04-19T19:35:28.108Z,2.17
2023-04-19T19:37:57.443Z,2.03
2023-04-19T19:40:31.065Z,2.30
2023-04-19T19:42:59.925Z,1.95
2023-04-19T19:45:30.360Z,1.90
2023-04-19T19:47:59.031Z,1.98
2023-04-19T19:51:06.774Z,2.10
2023-04-19T19:53:16.780Z,2.40
2023-04-19T19:55:46.453Z,1.92
2023-04-19T19:58:39.483Z,2.00
2023-04-19T20:01:02.272Z,1.85
2023-04-19T20:03:37.267Z,2.00
2023-04-19T20:06:35.692Z,2.00
2023-04-19T20:08:56.256Z,1.88
2023-04-19T20:11:26.045Z,2.38
2023-04-19T20:13:55.867Z,2.45
2023-04-19T20:16:23.309Z,2.40
2023-04-19T20:18:52.700Z,1.98
2023-04-19T20:21:20.441Z,2.17
2023-04-19T20:23:49.532Z,1.95
2023-04-19T20:26:16.713Z,2.30
2023-04-19T20:28:43.842Z,2.17
2023-04-19T20:31:12.952Z,2.85
2023-04-19T20:33:39.655Z,2.40
2023-04-19T20:36:06.711Z,2.20
2023-04-19T20:38:34.498Z,2.53
2023-04-19T20:41:03.475Z,2.00
2023-04-19T20:43:30.374Z,1.95
2023-04-19T20:45:59.638Z,2.05
2023-04-19T20:48:26.358Z,2.35
2023-04-19T20:50:53.664Z,2.15
2023-04-19T20:53:25.092Z,2.30
2023-04-19T20:55:51.992Z,2.00
2023-04-19T20:58:18.680Z,2.03
2023-04-19T21:00:46.041Z,2.28
2023-04-19T21:03:13.299Z,2.00
2023-04-19T21:05:41.288Z,2.40
2023-04-19T21:08:10.965Z,2.33
2023-04-19T21:10:38.065Z,2.25
2023-04-19T21:13:07.418Z,2.15
2023-04-19T21:15:36.782Z,2.33
2023-04-19T21:18:04.062Z,2.10
2023-04-19T21:20:33.926Z,2.33
2023-04-19T21:23:01.983Z,2.30
2023-04-19T21:25:29.076Z,2.13
2023-04-19T21:27:56.183Z,2.53
2023-04-19T21:30:23.753Z,1.92
2023-04-19T21:32:53.383Z,1.73
2023-04-19T21:35:20.632Z,2.17
2023-04-19T21:37:47.730Z,2.13
2023-04-19T21:40:17.255Z,2.45
2023-04-19T21:42:46.601Z,2.65
2023-04-19T21:45:13.707Z,2.17
2023-04-19T21:47:40.795Z,2.42
2023-04-19T21:50:08.344Z,2.00
2023-04-19T21:52:35.475Z,2.03
2023-04-19T21:55:02.620Z,2.47
2023-04-19T21:57:30.851Z,2.10
2023-04-19T22:00:00.254Z,2.50
2023-04-19T22:02:29.612Z,2.70
2023-04-19T22:04:56.605Z,2.35
2023-04-19T22:07:23.853Z,2.00
2023-04-19T22:09:51.091Z,2.28
2023-04-19T22:12:18.832Z,2.30
2023-04-19T22:14:45.603Z,2.40
2023-04-19T22:17:14.569Z,2.10
2023-04-19T22:19:41.270Z,2.35
2023-04-19T22:22:12.864Z,2.80
2023-04-19T22:24:53.399Z,2.38
2023-04-19T22:27:27.391Z,2.20
2023-04-19T22:29:54.144Z,2.15
2023-04-19T22:32:20.930Z,2.33
2023-04-19T22:34:47.632Z,2.28
2023-04-19T22:37:14.372Z,2.33
2023-04-19T22:39:41.037Z,2.35
2023-04-19T22:42:07.812Z,2.58
2023-04-19T22:44:34.590Z,2.40
2023-04-19T22:47:01.327Z,2.38
2023-04-19T22:49:29.600Z,2.42
2023-04-19T22:51:59.612Z,2.67
2023-04-19T22:56:53.229Z,2.25
2023-04-19T22:59:22.486Z,2.20
2023-04-19T23:01:51.832Z,2.22
2023-04-19T23:04:19.926Z,2.85
2023-04-19T23:06:48.613Z,2.67
2023-04-19T23:09:15.924Z,2.30
2023-04-19T23:11:47.118Z,2.30
2023-04-19T23:14:13.942Z,2.45
2023-04-19T23:16:42.813Z,2.17
2023-04-19T23:19:09.525Z,2.13
2023-04-19T23:21:36.343Z,2.58
2023-04-19T23:24:03.188Z,2.40
2023-04-19T23:26:30.177Z,2.45
2023-04-19T23:28:56.901Z,2.40
2023-04-19T23:31:23.726Z,2.47
2023-04-19T23:33:50.555Z,2.20
2023-04-19T23:36:19.501Z,2.72
2023-04-19T23:38:46.187Z,2.70
2023-04-19T23:41:15.673Z,2.60
2023-04-19T23:43:42.329Z,2.03
2023-04-19T23:46:11.499Z,2.50
2023-04-19T23:48:38.366Z,2.40
2023-04-19T23:51:06.125Z,2.10
2023-04-19T23:53:33.206Z,2.45
2023-04-19T23:56:02.787Z,2.58
2023-04-19T23:58:32.316Z,2.55
